AirNav   Bose Proflight and A20 aviation headeets
 
 266 users online  

95GA McIntosh Field Airport
Whitesburg, Georgia, USA

GOING TO WHITESBURG?


FAA INFORMATION EFFECTIVE 31 JANUARY 2019

Location

FAA Identifier: 95GA
Lat/Long: 33-27-21.4090N / 084-56-34.7830W
33-27.356817N / 084-56.579717W
33.4559469 / -84.9429953
(estimated)
Elevation: 771 ft. / 235.0 m (surveyed)
Variation: 02W (1990)
From city: 3 miles SW of WHITESBURG, GA
Time zone: UTC -5 (UTC -4 during Daylight Saving Time)
Zip code: 30185

Airport Operations

Airport use: Private use. Permission required prior to landing
Activation date: 04/1993
Control tower: no
ARTCC: ATLANTA CENTER
FSS: MACON FLIGHT SERVICE STATION
Attendance: IREG
Wind indicator: yes
Segmented circle: no

Airport Communications

WX AWOS-3PT at CCO (12 nm SE): 118.975 (770-254-1617)
WX AWOS-3 at CTJ (15 nm NW): 118.175 (770-214-9667)
WX ASOS at FFC (19 nm E): 118.525 (770-487-1610)

Nearby radio navigation aids

VOR radial/distance  VOR name  Freq  Var
ATLr253/27.4ATLANTA VORTAC116.9005W
LGCr027/27.8LAGRANGE VORTAC115.6001E

 
NDB name  Hdg/Dist  Freq  Var  ID
CARROLLTON129/11.527804WGPQ --. .--. --.-
COWETA COUNTY319/16.623403WEQQ . --.- --.-
PECAT297/24.731605WFFC ..-. ..-. -.-.
PINE MOUNTAIN358/37.027203WPIM .--. .. --

Airport Services

Runway Information

Runway 4/22

Dimensions: 2480 x 50 ft. / 756 x 15 m
Surface: turf, in good condition
RUNWAY 4  RUNWAY 22
Traffic pattern: leftleft

Airport Ownership and Management from official FAA records

Ownership: Privately-owned
Owner: W. K. ZEIS, JR & D. M. GREENE
520 W. MCINTOSH CIRCLE
WHITESBURG, GA 30185
Phone 770-834-4219
Manager: W. K. ZEIS, JR & D. M. GREENE
520 W. MCINTOSH CIRCLE
WHITESBURG, GA 30185
Phone 770-834-4219

Additional Remarks

A52-04 04/22 TREES IN ALL QUADRANTS; HILLS ALONG EACH SIDE OF RY.
EXTENSIVE DEER ON AND INVOF ARPT.
POND WITH GEESE ADJACENT TO RW
REMOTE CONTROL AIRCRAFT PARK 1 MILE SW
FOR CD CTC ATLANTA APCH AT 678-364-6131.

Instrument Procedures

There are no published instrument procedures at 95GA.

Some nearby airports with instrument procedures:

KCCO - Newnan Coweta County Airport (12 nm SE)
KCTJ - West Georgia Regional Airport-O V Gray Field (15 nm NW)
KFFC - Atlanta Regional Airport-Falcon Field (19 nm E)
KPUJ - Paulding Northwest Atlanta Airport (27 nm N)
KLGC - LaGrange-Callaway Airport (28 nm S)
 
Loc | Ops | Rwys | IFR | FBO | Links
Com | Nav | Svcs | Stats | Notes
Area around 95GA (McIntosh Field Airport)
 
Road maps at: MapQuest Bing Google
 
Aerial photo
No photo
 
Sectional chart

 
Airport distance calculator
Flying to McIntosh Field Airport? Find the distance to fly.

From to 95GA

Sunrise and sunset
Times for 17-Feb-2019
 Local
(UTC-5)
 Zulu
(UTC)
Morning civil twilight06:5711:57
Sunrise07:2312:23
Sunset18:2523:25
Evening civil twilight18:5023:50

Current date and time
Zulu (UTC)  17-Feb-2019 08:59:07
Local (UTC-5)  17-Feb-2019 03:59:07
 
METAR
KCCO 
12nm SE 
170835Z AUTO 10005KT 10SM SCT031 SCT040 BKN110 11/10 A2986 RMK AO2 T01130095
KCTJ 
15nm NW 
170835Z AUTO 00000KT 10SM BKN027 OVC110 08/07 A2990 RMK AO2 T00820071
KFFC 
20nm E 
170853Z AUTO 09005KT 10SM FEW035 BKN110 11/08 A2987 RMK AO2 RAB14E26 SLP115 P0000 60000 T01060083 58006
TAF
KATL 
27nm NE 
170803Z 1708/1812 08007KT P6SM VCSH OVC007 FM171000 10010KT 6SM -RADZ BR OVC005 FM171400 11010KT 2SM -RA BR OVC004 FM171800 11010KT 3SM -RA BR OVC005 FM180600 32012KT 4SM -RA BR OVC007
KFTY 
29nm NE 
170537Z 1706/1806 VRB03KT P6SM SCT015 BKN035 TEMPO 1706/1707 BKN015 FM170800 09008KT P6SM SCT007 OVC015 FM171000 10010KT 5SM -RADZ BR OVC005 FM171400 11010KT 2SM -RA BR OVC004 FM171800 11010KT 3SM -RA BR OVC005
NOTAMs
Click for the latest NOTAMs
NOTAMs are issued by the DoD/FAA and will open in a separate window not controlled by AirNav.

 

 
 

Would you like to see your business listed on this page?

 If your business provides an interesting product or service to pilots, flight crews, aircraft, or users of the McIntosh Field Airport, you should consider listing it here.  To start the listing process, click on the button below
 
Add a business
 

Other Pages about McIntosh Field Airport

Update a link
 
Copyright © AirNav, LLC. All rights reserved. Privacy Policy  Contact